createdAt,value
2018-11-23T00:02:22.070Z,15.60
2018-11-23T00:06:18.711Z,16.60
2018-11-23T00:10:17.510Z,16.60
2018-11-23T00:14:14.018Z,15.28
2018-11-23T00:18:10.504Z,16.10
2018-11-23T00:22:07.272Z,16.10
2018-11-23T00:26:03.957Z,14.27
2018-11-23T00:30:00.557Z,13.48
2018-11-23T00:33:57.809Z,15.40
2018-11-23T00:37:55.307Z,15.53
2018-11-23T00:41:52.113Z,16.47
2018-11-23T00:45:48.999Z,14.80
2018-11-23T00:49:45.741Z,14.33
2018-11-23T00:53:42.415Z,15.17
2018-11-23T00:57:39.293Z,15.20
2018-11-23T01:01:41.294Z,15.47
2018-11-23T01:05:38.044Z,15.20
2018-11-23T01:09:35.234Z,15.77
2018-11-23T01:13:31.952Z,16.47
2018-11-23T01:17:29.053Z,15.77
2018-11-23T01:21:25.858Z,16.00
2018-11-23T01:25:23.750Z,15.93
2018-11-23T01:29:20.425Z,17.12
2018-11-23T01:33:17.242Z,16.07
2018-11-23T01:37:14.002Z,15.57
2018-11-23T01:41:10.751Z,15.63
2018-11-23T01:45:09.349Z,16.20
2018-11-23T01:49:05.887Z,15.48
2018-11-23T01:53:02.531Z,16.70
2018-11-23T01:56:59.314Z,17.82
2018-11-23T02:00:56.214Z,17.03
2018-11-23T02:04:53.126Z,17.43
2018-11-23T02:08:50.358Z,16.20
2018-11-23T02:12:47.053Z,15.23
2018-11-23T02:16:43.857Z,15.32
2018-11-23T02:20:40.937Z,16.20
2018-11-23T02:24:37.677Z,16.67
2018-11-23T02:28:39.714Z,16.80
2018-11-23T02:32:36.579Z,15.87
2018-11-23T02:36:33.214Z,16.20
2018-11-23T02:40:30.087Z,15.87
2018-11-23T02:44:26.846Z,15.77
2018-11-23T02:48:23.672Z,15.30
2018-11-23T02:52:20.328Z,15.83
2018-11-23T02:56:17.223Z,15.23
2018-11-23T03:00:17.726Z,15.08
2018-11-23T03:04:14.487Z,15.20
2018-11-23T03:08:11.272Z,14.60
2018-11-23T03:12:08.108Z,15.30
2018-11-23T03:16:04.834Z,15.83
2018-11-23T03:20:01.692Z,15.17
2018-11-23T03:23:59.167Z,15.10
2018-11-23T03:27:56.090Z,17.40
2018-11-23T03:31:54.122Z,14.60
2018-11-23T03:35:51.811Z,13.70
2018-11-23T03:39:48.925Z,15.30
2018-11-23T03:43:45.743Z,15.67
2018-11-23T03:47:43.905Z,15.10
2018-11-23T03:51:40.614Z,14.10
2018-11-23T03:55:37.211Z,14.63
2018-11-23T03:59:33.897Z,15.70
2018-11-23T04:03:31.116Z,13.77
2018-11-23T04:07:27.435Z,15.23
2018-11-23T04:11:24.085Z,15.10
2018-11-23T04:15:20.761Z,14.97
2018-11-23T04:19:17.850Z,15.37
2018-11-23T04:23:14.782Z,13.68
2018-11-23T04:27:11.381Z,14.60
2018-11-23T04:31:12.654Z,14.25
2018-11-23T04:35:12.498Z,15.13
2018-11-23T04:39:10.048Z,14.68
2018-11-23T04:43:07.639Z,14.83
2018-11-23T04:47:04.885Z,15.50
2018-11-23T04:51:03.470Z,14.47
2018-11-23T04:55:00.237Z,15.23
2018-11-23T04:58:57.996Z,15.27
2018-11-23T05:02:54.621Z,14.40
2018-11-23T05:07:00.448Z,14.63
2018-11-23T05:10:57.157Z,15.30
2018-11-23T05:14:54.015Z,15.57
2018-11-23T05:18:50.846Z,16.10
2018-11-23T05:22:47.697Z,15.67
2018-11-23T05:26:44.813Z,15.17
2018-11-23T05:30:41.596Z,14.63
2018-11-23T05:34:38.641Z,15.58
2018-11-23T05:38:35.291Z,16.17
2018-11-23T05:42:31.810Z,16.50
2018-11-23T05:46:28.494Z,14.93
2018-11-23T05:50:26.936Z,14.53
2018-11-23T05:54:23.515Z,16.47
2018-11-23T05:58:20.115Z,15.73
2018-11-23T06:02:18.331Z,15.70
2018-11-23T06:06:14.941Z,15.47
2018-11-23T06:10:14.528Z,15.80
2018-11-23T06:14:11.325Z,17.40
2018-11-23T06:18:07.991Z,15.03
2018-11-23T06:22:04.837Z,15.50
2018-11-23T06:26:12.808Z,16.00
2018-11-23T06:30:12.250Z,16.37
2018-11-23T06:34:09.076Z,17.07
2018-11-23T06:38:05.984Z,16.63
2018-11-23T06:42:06.729Z,16.20
2018-11-23T06:46:05.105Z,16.77
2018-11-23T06:50:01.851Z,15.97
2018-11-23T06:54:00.586Z,16.73
2018-11-23T06:57:57.287Z,16.37
2018-11-23T07:01:54.346Z,15.83
2018-11-23T07:05:51.092Z,15.17
2018-11-23T07:09:48.334Z,15.55
2018-11-23T07:13:45.190Z,15.03
2018-11-23T07:17:42.830Z,15.65
2018-11-23T07:21:39.509Z,16.67
2018-11-23T07:25:36.496Z,16.93
2018-11-23T07:29:33.522Z,16.60
2018-11-23T07:33:30.584Z,17.20
2018-11-23T07:37:27.620Z,16.43
2018-11-23T07:41:41.065Z,16.70
2018-11-23T07:45:37.866Z,16.87
2018-11-23T07:49:35.789Z,15.72
2018-11-23T07:53:32.467Z,15.50
2018-11-23T07:57:29.209Z,15.73
2018-11-23T08:01:26.303Z,16.30
2018-11-23T08:05:23.185Z,16.97
2018-11-23T08:09:20.160Z,16.13
2018-11-23T08:13:17.186Z,17.27
2018-11-23T08:17:13.983Z,16.20
2018-11-23T08:21:11.204Z,17.93
2018-11-23T08:25:09.734Z,16.40
2018-11-23T08:29:06.682Z,17.77
2018-11-23T08:33:04.429Z,17.40
2018-11-23T08:37:01.090Z,17.47
2018-11-23T08:40:57.669Z,15.87
2018-11-23T08:44:54.811Z,16.73
2018-11-23T08:48:51.698Z,17.97
2018-11-23T08:52:48.317Z,15.43
2018-11-23T08:56:44.976Z,16.02
2018-11-23T09:00:42.937Z,16.93
2018-11-23T09:04:39.769Z,18.83
2018-11-23T09:08:38.281Z,18.90
2018-11-23T09:12:34.837Z,18.77
2018-11-23T09:16:32.077Z,19.77
2018-11-23T09:20:29.182Z,20.27
2018-11-23T09:24:26.562Z,18.00
2018-11-23T09:28:23.405Z,18.30
2018-11-23T09:32:20.293Z,18.03
2018-11-23T09:36:17.150Z,18.07
2018-11-23T09:40:16.213Z,20.23
2018-11-23T09:44:13.861Z,19.17
2018-11-23T09:48:10.659Z,18.13
2018-11-23T09:52:07.664Z,17.77
2018-11-23T09:56:04.748Z,19.07
2018-11-23T10:00:01.776Z,18.90
2018-11-23T10:03:58.632Z,17.90
2018-11-23T10:07:56.817Z,18.20
2018-11-23T10:11:53.648Z,17.00
2018-11-23T10:15:50.986Z,19.20
2018-11-23T10:19:47.854Z,18.77
2018-11-23T10:23:44.887Z,19.37
2018-11-23T10:27:42.339Z,18.27
2018-11-23T10:31:39.361Z,17.90
2018-11-23T10:35:36.272Z,19.32
2018-11-23T10:39:34.154Z,18.57
2018-11-23T10:43:32.003Z,18.13
2018-11-23T10:47:28.795Z,18.95
2018-11-23T10:51:25.512Z,18.40
2018-11-23T10:55:24.253Z,19.93
2018-11-23T10:59:20.967Z,19.53
2018-11-23T11:03:34.139Z,19.53
2018-11-23T11:07:31.343Z,20.10
2018-11-23T11:11:28.319Z,18.90
2018-11-23T11:15:25.229Z,19.57
2018-11-23T11:19:21.979Z,18.57
2018-11-23T11:23:18.995Z,20.07
2018-11-23T11:27:15.934Z,18.75
2018-11-23T11:31:12.806Z,18.83
2018-11-23T11:35:10.759Z,19.67
2018-11-23T11:39:12.090Z,20.07
2018-11-23T11:43:08.945Z,18.67
2018-11-23T11:47:06.709Z,19.67
2018-11-23T11:51:04.124Z,19.47
2018-11-23T11:55:01.772Z,21.47
2018-11-23T11:58:58.524Z,18.90
2018-11-23T12:02:55.820Z,19.87
2018-11-23T12:06:55.700Z,18.90
2018-11-23T12:10:52.760Z,19.67
2018-11-23T12:14:49.522Z,19.48
2018-11-23T12:18:46.298Z,18.77
2018-11-23T12:22:43.333Z,18.97
2018-11-23T12:33:05.212Z,19.43
2018-11-23T12:37:02.612Z,18.70
2018-11-23T12:40:59.092Z,18.77
2018-11-23T12:44:56.220Z,19.60
2018-11-23T12:48:52.926Z,18.47
2018-11-23T12:52:49.724Z,19.47
2018-11-23T12:56:46.835Z,19.40
2018-11-23T13:00:43.567Z,19.30
2018-11-23T13:04:40.427Z,19.17
2018-11-23T13:08:37.204Z,19.63
2018-11-23T13:12:33.949Z,18.37
2018-11-23T13:16:30.287Z,24.13
2018-11-23T13:20:26.925Z,18.07
2018-11-23T13:24:25.064Z,19.27
2018-11-23T13:28:22.226Z,18.17
2018-11-23T13:32:19.045Z,18.93
2018-11-23T13:36:15.912Z,19.00
2018-11-23T13:40:15.505Z,19.63
2018-11-23T13:44:12.238Z,20.13
2018-11-23T13:48:08.834Z,19.93
2018-11-23T13:52:05.188Z,19.70
2018-11-23T13:56:02.780Z,19.00
2018-11-23T13:59:59.501Z,20.20
2018-11-23T14:03:56.330Z,19.03
2018-11-23T14:07:54.407Z,19.77
2018-11-23T14:11:52.082Z,19.17
2018-11-23T14:15:48.712Z,19.33
2018-11-23T14:19:45.578Z,19.53
2018-11-23T14:23:42.717Z,18.63
2018-11-23T14:27:39.354Z,20.03
2018-11-23T14:31:35.979Z,18.83
2018-11-23T14:35:33.972Z,17.87
2018-11-23T14:39:31.266Z,18.83
2018-11-23T14:43:27.881Z,17.50
2018-11-23T14:47:24.865Z,17.53
2018-11-23T14:51:21.701Z,18.50
2018-11-23T14:55:18.619Z,19.07
2018-11-23T14:59:15.712Z,18.23
2018-11-23T15:03:12.483Z,19.23
2018-11-23T15:07:09.519Z,18.60
2018-11-23T15:11:07.553Z,18.80
2018-11-23T15:15:04.462Z,18.17
2018-11-23T15:19:01.685Z,18.40
2018-11-23T15:23:01.819Z,19.07
2018-11-23T15:26:58.727Z,19.80
2018-11-23T15:30:56.806Z,17.87
2018-11-23T15:34:53.606Z,17.20
2018-11-23T15:38:50.395Z,17.07
2018-11-23T15:42:47.848Z,17.13
2018-11-23T15:46:44.901Z,16.60
2018-11-23T15:50:42.603Z,18.70
2018-11-23T15:54:39.548Z,16.70
2018-11-23T15:58:36.708Z,17.53
2018-11-23T16:02:33.406Z,17.07
2018-11-23T16:06:29.952Z,17.73
2018-11-23T16:10:28.423Z,17.17
2018-11-23T16:14:25.230Z,16.77
2018-11-23T16:18:22.506Z,16.47
2018-11-23T16:22:19.324Z,16.67
2018-11-23T16:26:15.998Z,17.13
2018-11-23T16:30:18.246Z,16.70
2018-11-23T16:34:15.369Z,16.97
2018-11-23T16:38:15.179Z,16.77
2018-11-23T16:42:12.182Z,16.90
2018-11-23T16:46:09.075Z,17.47
2018-11-23T16:50:11.048Z,17.10
2018-11-23T16:54:14.704Z,17.13
2018-11-23T16:58:29.455Z,18.67
2018-11-23T17:06:44.356Z,17.17
2018-11-23T17:10:42.437Z,16.67
2018-11-23T17:14:40.126Z,17.33
2018-11-23T17:18:40.069Z,18.70
2018-11-23T17:22:37.682Z,20.23
2018-11-23T17:26:36.533Z,22.60
2018-11-23T17:30:35.349Z,23.00
2018-11-23T17:34:34.515Z,24.20
2018-11-23T17:38:37.713Z,24.03
2018-11-23T17:42:32.525Z,24.83
2018-11-23T17:46:31.721Z,25.53
2018-11-23T17:50:30.644Z,24.03
2018-11-23T17:54:29.318Z,23.93
2018-11-23T17:58:26.963Z,24.90
2018-11-23T18:02:26.794Z,24.90
2018-11-23T18:06:26.028Z,25.17
2018-11-23T18:10:27.623Z,33.43
2018-11-23T18:14:27.141Z,28.93
2018-11-23T18:18:26.391Z,25.97
2018-11-23T18:22:23.995Z,23.63
2018-11-23T18:26:20.971Z,24.30
2018-11-23T18:30:19.112Z,24.30
2018-11-23T18:34:16.624Z,24.83
2018-11-23T18:38:15.679Z,23.97
2018-11-23T18:42:12.602Z,24.97
2018-11-23T18:46:10.586Z,25.33
2018-11-23T18:50:13.066Z,24.83
2018-11-23T18:54:10.231Z,26.07
2018-11-23T18:58:07.883Z,23.60
2018-11-23T19:02:05.971Z,25.33
2018-11-23T19:06:03.808Z,23.93
2018-11-23T19:10:01.764Z,25.07
2018-11-23T19:13:59.886Z,23.40
2018-11-23T19:17:58.138Z,23.27
2018-11-23T19:21:55.537Z,23.37
2018-11-23T19:25:52.419Z,20.20
2018-11-23T19:29:51.077Z,21.83
2018-11-23T19:33:47.790Z,22.50
2018-11-23T19:37:44.842Z,21.57
2018-11-23T19:41:42.789Z,20.57
2018-11-23T19:45:40.891Z,20.90
2018-11-23T19:49:39.151Z,20.40
2018-11-23T19:53:37.015Z,20.17
2018-11-23T19:57:34.278Z,21.27
2018-11-23T20:01:31.280Z,22.20
2018-11-23T20:05:30.159Z,22.10
2018-11-23T20:09:27.306Z,21.53
2018-11-23T20:13:24.456Z,22.43
2018-11-23T20:17:23.756Z,21.23
2018-11-23T20:21:20.880Z,24.30
2018-11-23T20:25:19.683Z,22.77
2018-11-23T20:29:16.813Z,22.00
2018-11-23T20:33:14.537Z,22.00
2018-11-23T20:37:11.227Z,21.77
2018-11-23T20:41:08.200Z,21.30
2018-11-23T20:45:07.203Z,21.30
2018-11-23T20:49:04.303Z,20.67
2018-11-23T20:53:01.135Z,19.63
2018-11-23T20:56:57.911Z,20.07
2018-11-23T21:00:54.811Z,19.67
2018-11-23T21:04:52.856Z,20.23
2018-11-23T21:08:50.183Z,18.67
2018-11-23T21:12:46.972Z,19.40
2018-11-23T21:16:43.756Z,18.80
2018-11-23T21:20:40.795Z,20.33
2018-11-23T21:24:37.585Z,18.67
2018-11-23T21:28:34.446Z,19.70
2018-11-23T21:32:31.721Z,19.53
2018-11-23T21:36:29.602Z,18.80
2018-11-23T21:40:29.116Z,19.63
2018-11-23T21:44:26.048Z,19.43
2018-11-23T21:48:23.418Z,19.30
2018-11-23T21:52:20.416Z,19.53
2018-11-23T21:56:17.740Z,20.03
2018-11-23T22:00:15.865Z,20.43
2018-11-23T22:04:12.641Z,20.53
2018-11-23T22:08:09.348Z,20.10
2018-11-23T22:12:06.857Z,19.73
2018-11-23T22:16:04.100Z,20.97
2018-11-23T22:20:01.247Z,20.53
2018-11-23T22:24:01.733Z,19.87
2018-11-23T22:27:56.543Z,21.43
2018-11-23T22:31:53.385Z,20.83
2018-11-23T22:35:50.144Z,21.93
2018-11-23T22:39:47.801Z,20.73
2018-11-23T22:43:44.606Z,22.13
2018-11-23T22:47:41.953Z,21.53
2018-11-23T22:51:38.679Z,20.77
2018-11-23T22:55:36.290Z,20.27
2018-11-23T22:59:33.047Z,21.40
2018-11-23T23:03:30.976Z,21.60
2018-11-23T23:07:28.835Z,21.50
2018-11-23T23:11:25.650Z,20.70
2018-11-23T23:15:22.564Z,20.07
2018-11-23T23:19:19.341Z,21.57
2018-11-23T23:23:16.190Z,20.27
2018-11-23T23:27:12.959Z,21.67
2018-11-23T23:31:10.569Z,19.87
2018-11-23T23:35:09.450Z,20.80
2018-11-23T23:39:08.774Z,21.13
2018-11-23T23:43:05.487Z,20.03
2018-11-23T23:47:02.337Z,20.73
2018-11-23T23:50:59.074Z,19.97
2018-11-23T23:54:56.482Z,20.30
2018-11-23T23:58:53.175Z,21.20
